Latest Weather Observations for Campania

IDT60901

Issued at 9:11 pm EST Friday 20 May 2022 (issued every 10 minutes, with the page automatically refreshed every 10 minutes)

About weather observations | Map of Hobart area stations | Latest observations for Hobart area | Other Formats
Station Details ID: 094212 Name: CAMPANIA (KINCORA) Lat: -42.69 Lon: 147.43 Height: 45.0 m
Data from the previous 72 hours. | See also: Recent months at Campania
Date/Time
EST
Temp
°C
App
Temp
°C
Dew
Point
°C
Rel
Hum
%
Delta-T
°C
Wind Press
QNH
hPa
Press
MSL
hPa
Rain since
9am
mm
Dir  Spd
km/h
Gust
km/h
Spd
kts
Gust
kts
20/09:00pm 5.7 2.0 4.7 93 0.4 NNE 13 15 7 8 - - 0.0
20/08:30pm 5.8 1.7 4.6 92 0.5 NNE 15 17 8 9 - - 0.0
20/08:00pm 6.2 3.3 4.7 90 0.7 NNE 9 13 5 7 - - 0.0
20/07:30pm 8.6 7.9 6.9 89 0.8 CALM 0 0 0 0 - - 0.0
20/07:00pm 8.8 6.6 6.4 85 1.1 SSW 7 9 4 5 - - 0.0
20/06:30pm 9.2 7.1 6.6 84 1.2 SSW 7 9 4 5 - - 0.0
20/06:00pm 9.9 7.9 7.2 83 1.3 SSW 7 9 4 5 - - 0.0
20/05:30pm 10.3 8.3 7.0 80 1.6 S 7 9 4 5 - - 0.0
20/05:00pm 10.6 8.1 6.7 77 1.8 S 9 13 5 7 - - 0.0
20/04:30pm 11.2 8.6 6.1 71 2.4 S 9 15 5 8 - - 0.0
20/04:00pm 12.1 9.5 5.9 66 2.9 SE 9 13 5 7 - - 0.0
20/03:30pm 12.4 9.7 5.6 63 3.2 SE 9 13 5 7 - - 0.0
20/03:00pm 12.9 10.2 5.8 62 3.3 SE 9 11 5 6 - - 0.0
20/02:30pm 13.0 9.9 5.4 60 3.6 SSE 11 15 6 8 - - 0.0
20/02:00pm 13.1 10.3 5.0 58 3.8 S 9 11 5 6 - - 0.0
20/01:30pm 12.9 10.2 5.6 61 3.4 S 9 13 5 7 - - 0.0
20/01:00pm 13.0 10.1 4.7 57 3.8 SSW 9 15 5 8 - - 0.0
20/12:30pm 13.7 10.2 5.6 58 3.8 W 13 20 7 11 - - 0.0
20/12:00pm 13.0 9.8 5.2 59 3.6 WSW 11 17 6 9 - - 0.0
20/11:30am 13.2 10.6 6.1 62 3.4 WNW 9 15 5 8 - - 0.0
20/11:00am 12.8 10.8 6.2 64 3.1 E 6 9 3 5 - - 0.0
20/10:30am 11.0 10.1 6.2 72 2.2 CALM 0 6 0 3 - - 0.0
20/10:00am 9.7 6.9 5.3 74 2.0 NNE 9 11 5 6 - - 0.0
20/09:30am 7.7 5.4 4.7 81 1.3 N 6 7 3 4 - - 0.0
20/09:00am 6.0 3.4 4.2 88 0.8 N 7 11 4 6 - - 0.0
20/08:30am 4.9 1.0 3.2 89 0.7 NNE 13 15 7 8 - - 0.0
20/08:00am 3.2 -0.6 1.9 91 0.5 N 11 13 6 7 - - 0.0
20/07:30am 1.3 -2.3 0.3 93 0.4 NNW 9 11 5 6 - - 0.0
20/07:00am 1.9 -1.7 0.9 93 0.4 N 9 11 5 6 - - 0.0
20/06:30am 1.8 -2.2 0.8 93 0.4 N 11 11 6 6 - - 0.0
20/06:00am 1.8 -1.4 0.8 93 0.4 NNW 7 11 4 6 - - 0.0
20/05:30am 1.4 -1.7 0.1 91 0.5 N 6 9 3 5 - - 0.0
20/05:00am 2.8 -0.6 1.8 93 0.4 N 9 9 5 5 - - 0.0
20/04:30am 2.4 -0.7 1.1 91 0.5 N 7 11 4 6 - - 0.0
20/04:00am 3.3 -0.1 2.0 91 0.5 N 9 11 5 6 - - 0.0
20/03:30am 2.4 -0.7 1.1 91 0.5 N 7 9 4 5 - - 0.0
20/03:00am 2.2 -0.5 0.6 89 0.6 NW 4 7 2 4 - - 0.0
20/02:30am 2.3 -0.9 0.7 89 0.6 NNW 7 9 4 5 - - 0.0
20/02:00am 3.2 -0.3 1.1 86 0.8 N 9 11 5 6 - - 0.0
20/01:30am 3.3 -0.2 1.3 87 0.8 N 9 11 5 6 - - 0.0
20/01:00am 3.1 0.1 0.8 85 0.9 NNW 6 7 3 4 - - 0.0
20/12:30am 4.9 1.7 1.0 76 1.5 NW 7 11 4 6 - - 0.0
20/12:00am 8.4 5.0 2.0 64 2.7 W 9 15 5 8 - - 0.0
 
Date/Time
EST
Temp
°C
App
Temp
°C
Dew
Point
°C
Rel
Hum
%
Delta-T
°C
Wind Press
QNH
hPa
Press
MSL
hPa
Rain since
9am
mm
Dir  Spd
km/h
Gust
km/h
Spd
kts
Gust
kts
19/11:30pm 8.5 4.4 2.1 64 2.7 W 13 20 7 11 - - 0.0
19/11:00pm 9.1 5.0 2.2 62 2.9 WNW 13 19 7 10 - - 0.0
19/10:30pm 7.1 3.7 2.0 70 2.1 NW 9 15 5 8 - - 0.0
19/10:00pm 6.2 3.4 2.1 75 1.7 N 6 9 3 5 - - 0.0
19/09:30pm 6.2 2.8 2.1 75 1.7 NNW 9 13 5 7 - - 0.0
19/09:00pm 5.7 1.9 1.8 76 1.6 N 11 13 6 7 - - 0.0
19/08:30pm 6.8 3.4 2.1 72 1.9 NNW 9 13 5 7 - - 0.0
19/08:00pm 8.4 5.2 2.8 68 2.4 WNW 9 17 5 9 - - 0.0
19/07:30pm 6.0 2.7 2.5 78 1.4 NNW 9 9 5 5 - - 0.0
19/07:00pm 7.1 3.8 2.2 71 2.0 NW 9 13 5 7 - - 0.0
19/06:30pm 9.9 6.2 2.3 59 3.2 WNW 11 13 6 7 - - 0.0
19/06:00pm 10.3 6.9 1.7 55 3.6 SW 9 15 5 8 - - 0.0
19/05:30pm 10.9 7.1 1.7 53 3.9 SW 11 19 6 10 - - 0.0
19/05:00pm 11.1 6.1 1.6 52 4.0 SW 17 24 9 13 - - 0.0
19/04:30pm 11.5 6.6 1.7 51 4.2 SW 17 26 9 14 - - 0.0
19/04:00pm 12.4 7.0 1.4 47 4.7 SW 19 30 10 16 - - 0.0
19/03:30pm 13.2 8.3 1.8 46 4.9 SW 17 26 9 14 - - 0.0
19/03:00pm 13.1 8.0 3.2 51 4.4 SSW 19 26 10 14 - - 0.0
19/02:30pm 13.2 8.0 2.4 48 4.7 SSW 19 32 10 17 - - 0.0
19/02:00pm 13.0 6.0 2.0 47 4.8 SW 28 39 15 21 - - 0.0
19/01:30pm 13.9 7.3 2.2 45 5.1 SSW 26 39 14 21 - - 0.0
19/01:00pm 14.3 9.1 2.5 45 5.2 SSW 19 30 10 16 - - 0.0
19/12:30pm 13.8 7.6 2.4 46 5.0 SSW 24 46 13 25 - - 0.0
19/12:23pm 14.0 7.1 2.6 46 5.1 SSW 28 46 15 25 - - 0.0
19/12:00pm 13.9 7.2 3.4 49 4.7 SW 28 43 15 23 - - 0.0
19/11:39am 13.5 6.7 3.0 49 4.7 SW 28 46 15 25 - - 0.0
19/11:30am 13.0 6.4 2.3 48 4.7 SW 26 46 14 25 - - 0.0
19/11:10am 13.2 6.3 2.4 48 4.7 WSW 28 41 15 22 - - 0.0
19/11:00am 13.6 8.9 3.1 49 4.7 WSW 17 37 9 20 - - 0.0
19/10:55am 12.9 8.1 2.5 49 4.6 W 17 37 9 20 - - 0.0
19/10:30am 12.6 8.9 2.2 49 4.5 NE 11 17 6 9 - - 0.0
19/10:00am 12.3 9.3 4.0 57 3.7 ENE 9 15 5 8 - - 0.0
19/09:30am 11.4 7.3 4.6 63 3.1 NW 15 33 8 18 - - 0.0
19/09:00am 11.3 6.5 4.5 63 3.1 W 19 30 10 16 - - 0.6
19/08:30am 11.1 6.6 4.1 62 3.1 WNW 17 30 9 16 - - 0.6
19/08:00am 11.0 5.8 3.8 61 3.2 W 20 33 11 18 - - 0.6
19/07:30am 10.9 6.3 3.5 60 3.3 WNW 17 30 9 16 - - 0.6
19/07:00am 10.7 6.7 3.0 59 3.3 NW 13 26 7 14 - - 0.6
19/06:30am 10.6 6.7 3.2 60 3.2 WNW 13 30 7 16 - - 0.6
19/06:00am 10.5 5.7 2.8 59 3.3 W 17 26 9 14 - - 0.6
19/05:30am 10.4 5.6 2.7 59 3.3 W 17 28 9 15 - - 0.6
19/05:04am 10.3 4.1 2.2 57 3.4 W 24 46 13 25 - - 0.6
19/05:00am 10.2 4.9 2.1 57 3.4 WNW 19 37 10 20 - - 0.6
19/04:30am 10.2 6.0 1.6 55 3.6 W 13 32 7 17 - - 0.6
19/04:00am 10.3 6.1 1.9 56 3.5 NW 13 35 7 19 - - 0.6
19/03:30am 9.9 6.2 2.5 60 3.2 NNW 11 22 6 12 - - 0.6
19/03:00am 9.9 5.9 3.0 62 3.0 NNW 13 19 7 10 - - 0.6
19/02:30am 10.3 6.7 2.9 60 3.2 WNW 11 20 6 11 - - 0.6
19/02:00am 10.4 6.3 2.5 58 3.4 NNW 13 30 7 16 - - 0.6
19/01:30am 10.5 6.9 3.1 60 3.2 S 11 22 6 12 - - 0.6
19/01:00am 9.9 5.2 3.4 64 2.8 WNW 17 26 9 14 - - 0.6
19/12:30am 10.0 4.8 3.3 63 2.9 W 20 33 11 18 - - 0.6
19/12:00am 9.9 4.7 3.4 64 2.8 W 20 32 11 17 - - 0.6
 
Date/Time
EST
Temp
°C
App
Temp
°C
Dew
Point
°C
Rel
Hum
%
Delta-T
°C
Wind Press
QNH
hPa
Press
MSL
hPa
Rain since
9am
mm
Dir  Spd
km/h
Gust
km/h
Spd
kts
Gust
kts
18/11:30pm 10.4 6.5 3.2 61 3.1 WNW 13 20 7 11 - - 0.6
18/11:00pm 10.3 6.3 3.1 61 3.1 WNW 13 28 7 15 - - 0.6
18/10:30pm 10.5 6.5 3.1 60 3.2 NNW 13 22 7 12 - - 0.6
18/10:00pm 10.7 6.7 3.0 59 3.3 SE 13 39 7 21 - - 0.6
18/09:30pm 10.4 6.4 2.7 59 3.3 NE 13 20 7 11 - - 0.6
18/09:00pm 10.6 5.8 2.4 57 3.5 SE 17 37 9 20 - - 0.6
18/08:30pm 10.5 6.0 2.4 57 3.5 NNW 15 26 8 14 - - 0.6
18/08:00pm 10.3 7.0 2.2 57 3.4 NNW 9 19 5 10 - - 0.6
18/07:30pm 10.4 6.7 2.3 57 3.5 N 11 20 6 11 - - 0.6
18/07:00pm 9.9 6.2 2.5 60 3.2 NE 11 19 6 10 - - 0.6
18/06:30pm 10.5 5.7 2.6 58 3.4 N 17 28 9 15 - - 0.6
18/06:00pm 10.5 5.7 2.6 58 3.4 W 17 35 9 19 - - 0.6
18/05:30pm 10.8 5.0 2.4 56 3.6 WNW 22 41 12 22 - - 0.6
18/05:00pm 10.8 5.1 2.6 57 3.5 W 22 32 12 17 - - 0.6
18/04:30pm 10.6 4.5 2.7 58 3.4 WNW 24 39 13 21 - - 0.6
18/04:00pm 11.2 3.0 2.5 55 3.8 W 35 63 19 34 - - 0.6
18/03:30pm 11.5 1.7 2.5 54 3.9 WSW 43 61 23 33 - - 0.6
18/03:00pm 11.6 2.7 2.9 55 3.8 WSW 39 59 21 32 - - 0.6
18/02:34pm 11.8 1.9 2.8 54 3.9 W 44 63 24 34 - - 0.6
18/02:30pm 11.9 2.5 2.6 53 4.0 W 41 54 22 29 - - 0.6
18/02:14pm 12.2 4.7 3.4 55 3.9 W 32 56 17 30 - - 0.6
18/02:00pm 12.0 4.9 3.5 56 3.8 W 30 39 16 21 - - 0.6
18/01:35pm 11.9 5.3 4.2 59 3.5 W 28 46 15 25 - - 0.6
18/01:30pm 12.2 5.1 3.4 55 3.9 W 30 43 16 23 - - 0.6
18/01:02pm 12.2 5.6 4.2 58 3.6 W 28 46 15 25 - - 0.6
18/01:00pm 12.1 5.9 4.3 59 3.5 W 26 44 14 24 - - 0.6
18/12:30pm 12.7 7.0 4.7 58 3.7 W 24 39 13 21 - - 0.6
18/12:00pm 11.7 6.0 4.9 63 3.1 W 24 37 13 20 - - 0.6
18/11:30am 10.8 5.9 5.3 69 2.5 W 20 35 11 19 - - 0.6
18/11:00am 11.0 6.1 5.1 67 2.7 W 20 30 11 16 - - 0.4
18/10:30am 10.2 5.4 5.4 72 2.2 W 20 32 11 17 - - 0.4
18/10:00am 11.1 5.8 4.8 65 2.9 W 22 39 12 21 - - 0.2
18/09:30am 10.5 4.2 3.8 63 3.0 WNW 26 43 14 23 - - 0.0
18/09:00am 10.3 4.9 2.2 57 3.4 NW 20 32 11 17 - - 0.0
18/08:30am 10.5 3.8 1.6 54 3.7 WNW 26 43 14 23 - - 0.0
18/08:00am 9.0 4.9 2.3 63 2.8 NNW 13 20 7 11 - - 0.0
18/07:30am 8.7 3.3 2.3 64 2.7 NW 20 32 11 17 - - 0.0
18/07:00am 8.4 3.6 2.4 66 2.5 NNW 17 26 9 14 - - 0.0
18/06:30am 8.2 3.0 2.4 67 2.4 NW 19 26 10 14 - - 0.0
18/06:00am 8.4 3.2 2.4 66 2.5 NW 19 33 10 18 - - 0.0
18/05:30am 8.9 3.1 2.3 63 2.8 NW 22 39 12 21 - - 0.0
18/05:00am 8.2 4.1 2.4 67 2.4 NNW 13 19 7 10 - - 0.0
18/04:30am 8.5 4.4 2.5 66 2.5 NW 13 20 7 11 - - 0.0
18/04:00am 8.9 3.7 2.3 63 2.8 NNW 19 32 10 17 - - 0.0
18/03:30am 8.7 3.8 2.1 63 2.8 N 17 20 9 11 - - 0.0
18/03:00am 8.2 3.0 2.4 67 2.4 N 19 24 10 13 - - 0.0
18/02:30am 8.5 4.4 2.3 65 2.6 NNW 13 26 7 14 - - 0.0
18/02:00am 9.0 4.5 2.3 63 2.8 NW 15 26 8 14 - - 0.0
18/01:30am 9.0 2.5 2.6 64 2.7 NW 26 44 14 24 - - 0.0
18/01:00am 8.9 3.1 2.5 64 2.7 NW 22 33 12 18 - - 0.0
18/12:30am 8.8 3.4 2.6 65 2.6 NW 20 32 11 17 - - 0.0
18/12:00am 8.6 3.5 3.0 68 2.4 NW 19 26 10 14 - - 0.0
 
Date/Time
EST
Temp
°C
App
Temp
°C
Dew
Point
°C
Rel
Hum
%
Delta-T
°C
Wind Press
QNH
hPa
Press
MSL
hPa
Rain since
9am
mm
Dir  Spd
km/h
Gust
km/h
Spd
kts
Gust
kts
17/11:30pm 8.8 3.7 3.2 68 2.4 NNW 19 28 10 15 - - 0.0
17/11:00pm 8.6 3.5 3.0 68 2.4 NNW 19 28 10 15 - - 0.0
17/10:30pm 9.1 3.8 3.1 66 2.6 NW 20 33 11 18 - - 0.0
17/10:00pm 8.7 3.5 3.7 71 2.2 NNW 20 32 11 17 - - 0.0
17/09:30pm 8.6 3.4 3.6 71 2.2 NW 20 26 11 14 - - 0.0

Latest Capital City Observations: Canberra | Sydney | Melbourne | Brisbane | Adelaide | Perth | Hobart | Darwin

Other formats

Comma delimited format used in spreadsheet applications
http://www.bom.gov.au/fwo/IDT60901/IDT60901.95972.axf

JavaScript Object Notation format (JSON) in row-major order
http://www.bom.gov.au/fwo/IDT60901/IDT60901.95972.json

Data quality

Most of these data are generated automatically and are frequently updated. Quality checks on data are not normally performed. It is possible for incorrect values to appear. Refer to information at About Latest Weather Observations and please check the disclaimer before using these data.